General Aviation Weather

Text Reports

Enter one or more of the following location identifiers separated by a space:

Zip Code, Four-Character ICAO or Three-Character IATA airport codes.

METAR - Aviation Routine Weather Report
KPNM - Princeton, Minnesota
Updated at 2:14 AM GMT on July 26, 2014 (9:14 PM CDT):
METAR KPNM 260214Z AUTO 00000KT 10SM BKN035 BKN041 OVC060 24/22 A2977 RMK AO2
TAF - Terminal Area Forecast
KPNM - Princeton, Minnesota
Updated at 2:14 AM GMT on July 26, 2014 (9:14 PM CDT):
No TAF is currently available for this location.
Decoded:
No decoded TAF is available.
PIREP - Pilot Weather Report
KPNM - Princeton, Minnesota
Updated at 2:14 AM GMT on July 26, 2014 (9:14 PM CDT):
No PIREP is currently available for this location.
AIRMET - Airmens Meteorological Information
KPNM - Princeton, Minnesota
Updated at 2:14 AM GMT on July 26, 2014 (9:14 PM CDT):
No AIRMET is currently available for this location.
SIGMET - Significant Meteorological Information
KPNM - Princeton, Minnesota
Updated at 2:14 AM GMT on July 26, 2014 (9:14 PM CDT):
No SIGMET is currently available for this location.
NOTAM - Notice to Airmen
KPNM - Princeton, Minnesota
Updated at 2:14 AM GMT on July 26, 2014 (9:14 PM CDT):
No NOTAM is currently available for this location.
Forecast Area
KPNM - Princeton, Minnesota
Updated at 2:14 AM GMT on July 26, 2014 (9:14 PM CDT):
No NOTAM is currently available for this location.
Aviation Weather Maps